createdAt,value
2023-03-17T00:01:48.208Z,82.82
2023-03-17T00:03:51.924Z,81.49
2023-03-17T00:05:56.357Z,83.17
2023-03-17T00:08:04.513Z,83.69
2023-03-17T00:10:14.806Z,83.67
2023-03-17T00:12:18.338Z,82.56
2023-03-17T00:14:23.147Z,81.74
2023-03-17T00:16:27.796Z,83.31
2023-03-17T00:18:32.014Z,83.68
2023-03-17T00:20:34.899Z,82.78
2023-03-17T00:22:37.979Z,82.87
2023-03-17T00:24:40.847Z,81.97
2023-03-17T00:26:43.843Z,83.52
2023-03-17T00:28:46.912Z,84.55
2023-03-17T00:30:55.278Z,85.55
2023-03-17T00:32:59.046Z,86.80
2023-03-17T00:35:02.398Z,87.25
2023-03-17T00:37:05.258Z,87.19
2023-03-17T00:41:16.534Z,87.03
2023-03-17T00:43:20.096Z,86.09
2023-03-17T00:45:24.464Z,84.05
2023-03-17T00:47:29.153Z,84.75
2023-03-17T00:49:33.003Z,84.86
2023-03-17T00:51:36.393Z,85.44
2023-03-17T00:53:40.093Z,86.74
2023-03-17T00:55:44.884Z,86.40
2023-03-17T00:57:48.926Z,87.03
2023-03-17T00:59:52.663Z,86.67
2023-03-17T01:01:55.702Z,85.08
2023-03-17T01:04:00.096Z,85.43
2023-03-17T01:06:05.035Z,86.80
2023-03-17T01:08:09.514Z,86.38
2023-03-17T01:10:15.845Z,86.97
2023-03-17T01:12:18.923Z,85.82
2023-03-17T01:14:22.835Z,86.32
2023-03-17T01:16:25.794Z,84.85
2023-03-17T01:18:29.133Z,84.35
2023-03-17T01:20:35.697Z,84.76
2023-03-17T01:22:38.624Z,85.17
2023-03-17T01:24:41.771Z,84.61
2023-03-17T01:26:45.152Z,83.50
2023-03-17T01:28:48.229Z,83.98
2023-03-17T01:30:51.463Z,84.33
2023-03-17T01:32:55.945Z,84.22
2023-03-17T01:34:59.624Z,85.17
2023-03-17T01:37:04.108Z,85.63
2023-03-17T01:39:07.711Z,86.36
2023-03-17T01:41:11.584Z,87.17
2023-03-17T01:43:21.061Z,86.94
2023-03-17T01:46:00.915Z,87.27
2023-03-17T01:48:04.203Z,87.37
2023-03-17T01:50:10.466Z,86.90
2023-03-17T01:52:18.655Z,87.01
2023-03-17T01:54:26.573Z,87.83
2023-03-17T01:56:30.535Z,87.90
2023-03-17T01:58:34.725Z,87.85
2023-03-17T02:00:38.364Z,88.99
2023-03-17T02:02:44.134Z,88.55
2023-03-17T02:04:47.142Z,87.00
2023-03-17T02:06:57.945Z,86.90
2023-03-17T02:09:03.400Z,86.11
2023-03-17T02:11:07.325Z,86.45
2023-03-17T02:13:12.863Z,86.85
2023-03-17T02:15:16.006Z,86.73
2023-03-17T02:17:21.503Z,87.49
2023-03-17T02:19:24.833Z,86.76
2023-03-17T02:21:38.733Z,85.40
2023-03-17T02:23:44.534Z,86.68
2023-03-17T02:25:47.973Z,86.14
2023-03-17T02:27:55.132Z,87.11
2023-03-17T02:29:58.542Z,87.08
2023-03-17T02:32:01.674Z,86.60
2023-03-17T02:34:06.154Z,86.87
2023-03-17T02:36:09.883Z,86.29
2023-03-17T02:38:14.481Z,84.86
2023-03-17T02:40:17.856Z,84.89
2023-03-17T02:42:21.278Z,84.93
2023-03-17T02:44:24.159Z,85.45
2023-03-17T02:46:29.660Z,85.58
2023-03-17T02:48:37.753Z,84.93
2023-03-17T02:50:41.016Z,85.98
2023-03-17T02:52:43.858Z,86.87
2023-03-17T02:54:48.520Z,86.50
2023-03-17T02:56:51.499Z,86.46
2023-03-17T02:58:54.423Z,86.12
2023-03-17T03:00:57.391Z,86.92
2023-03-17T03:03:00.307Z,86.66
2023-03-17T03:05:03.390Z,86.36
2023-03-17T03:07:06.964Z,86.80
2023-03-17T03:09:10.910Z,84.90
2023-03-17T03:11:15.601Z,85.03
2023-03-17T03:13:18.417Z,85.97
2023-03-17T03:15:21.905Z,85.80
2023-03-17T03:17:24.949Z,85.90
2023-03-17T03:19:28.600Z,85.21
2023-03-17T03:21:31.954Z,84.81
2023-03-17T03:23:35.039Z,85.31
2023-03-17T03:25:38.350Z,85.88
2023-03-17T03:27:42.771Z,87.47
2023-03-17T03:29:45.600Z,88.23
2023-03-17T03:31:49.019Z,88.10
2023-03-17T03:33:51.986Z,87.57
2023-03-17T03:35:55.158Z,87.77
2023-03-17T03:37:58.256Z,87.85
2023-03-17T03:40:01.290Z,87.51
2023-03-17T03:42:04.493Z,87.82
2023-03-17T03:44:09.091Z,86.36
2023-03-17T03:46:11.961Z,85.62
2023-03-17T03:48:14.980Z,86.58
2023-03-17T03:50:18.306Z,85.17
2023-03-17T03:52:22.728Z,86.71
2023-03-17T03:54:25.669Z,85.52
2023-03-17T03:56:28.590Z,85.14
2023-03-17T03:58:31.398Z,86.34
2023-03-17T04:00:36.093Z,86.74
2023-03-17T04:02:39.243Z,86.39
2023-03-17T04:04:43.056Z,87.85
2023-03-17T04:06:46.154Z,88.43
2023-03-17T04:08:49.325Z,87.74
2023-03-17T04:10:52.195Z,87.92
2023-03-17T04:12:56.121Z,87.48
2023-03-17T04:14:59.048Z,87.39
2023-03-17T04:17:05.048Z,87.20
2023-03-17T04:19:07.975Z,88.27
2023-03-17T04:21:10.985Z,86.87
2023-03-17T04:23:14.189Z,86.62
2023-03-17T04:25:17.294Z,86.83
2023-03-17T04:27:20.172Z,86.36
2023-03-17T04:29:23.775Z,85.92
2023-03-17T04:31:26.743Z,85.54
2023-03-17T04:33:31.157Z,85.86
2023-03-17T04:35:34.122Z,86.85
2023-03-17T04:37:37.097Z,86.21
2023-03-17T04:39:40.149Z,86.47
2023-03-17T04:41:44.035Z,85.70
2023-03-17T04:43:46.923Z,85.71
2023-03-17T04:45:49.851Z,85.89
2023-03-17T04:47:52.806Z,85.56
2023-03-17T04:49:57.194Z,85.78
2023-03-17T04:52:00.094Z,84.63
2023-03-17T04:54:03.244Z,85.03
2023-03-17T04:56:06.982Z,85.22
2023-03-17T04:58:11.762Z,85.78
2023-03-17T05:00:16.966Z,84.60
2023-03-17T05:02:20.166Z,84.51
2023-03-17T05:04:31.070Z,84.79
2023-03-17T05:06:37.546Z,85.70
2023-03-17T05:08:40.511Z,86.43
2023-03-17T05:10:43.414Z,85.28
2023-03-17T05:12:46.319Z,86.52
2023-03-17T05:14:49.245Z,86.54
2023-03-17T05:16:52.462Z,87.06
2023-03-17T05:18:55.741Z,86.46
2023-03-17T05:20:58.747Z,85.83
2023-03-17T05:23:03.347Z,86.56
2023-03-17T05:25:07.314Z,85.98
2023-03-17T05:27:10.265Z,85.48
2023-03-17T05:29:13.240Z,86.04
2023-03-17T05:31:16.276Z,85.84
2023-03-17T05:33:20.470Z,85.78
2023-03-17T05:35:23.975Z,85.52
2023-03-17T05:37:26.973Z,85.14
2023-03-17T05:39:31.554Z,85.75
2023-03-17T05:41:34.502Z,85.79
2023-03-17T05:43:37.793Z,85.76
2023-03-17T05:45:41.595Z,84.16
2023-03-17T05:47:44.756Z,84.83
2023-03-17T05:49:47.634Z,84.15
2023-03-17T05:51:50.676Z,83.25
2023-03-17T05:53:53.604Z,82.62
2023-03-17T05:55:58.096Z,81.21
2023-03-17T05:58:01.245Z,80.35
2023-03-17T06:00:05.612Z,80.48
2023-03-17T06:02:09.033Z,80.44
2023-03-17T06:04:12.273Z,78.50
2023-03-17T06:06:15.326Z,79.79
2023-03-17T06:08:18.401Z,79.75
2023-03-17T06:10:21.753Z,78.87
2023-03-17T06:12:26.637Z,78.05
2023-03-17T06:14:29.426Z,77.00
2023-03-17T06:16:33.623Z,76.70
2023-03-17T06:18:37.125Z,75.01
2023-03-17T06:20:40.181Z,70.93
2023-03-17T06:23:00.484Z,67.84
2023-03-17T06:25:06.821Z,63.16
2023-03-17T06:27:11.297Z,61.45
2023-03-17T06:29:16.427Z,59.74
2023-03-17T06:31:20.932Z,58.73
2023-03-17T06:33:24.303Z,53.95
2023-03-17T06:35:27.889Z,54.03
2023-03-17T06:37:31.186Z,50.56
2023-03-17T06:39:34.066Z,46.22
2023-03-17T06:41:37.337Z,46.85
2023-03-17T06:43:40.155Z,44.99
2023-03-17T06:45:44.546Z,43.39
2023-03-17T06:47:47.426Z,42.14
2023-03-17T06:49:50.528Z,41.28
2023-03-17T06:51:54.441Z,40.81
2023-03-17T06:53:57.618Z,41.24
2023-03-17T06:56:00.616Z,36.80
2023-03-17T06:58:03.808Z,39.00
2023-03-17T07:00:08.105Z,39.31
2023-03-17T07:02:13.009Z,37.63
2023-03-17T07:04:16.183Z,35.97
2023-03-17T07:06:19.317Z,33.76
2023-03-17T07:08:22.486Z,35.02
2023-03-17T07:10:25.836Z,35.68
2023-03-17T07:12:29.165Z,35.58
2023-03-17T07:14:34.129Z,36.02
2023-03-17T07:16:37.901Z,34.82
2023-03-17T07:18:42.653Z,35.87
2023-03-17T07:20:45.505Z,34.52
2023-03-17T07:22:48.477Z,36.06
2023-03-17T07:24:52.271Z,36.01
2023-03-17T07:26:55.277Z,34.56
2023-03-17T07:29:01.272Z,33.84
2023-03-17T07:31:08.127Z,36.45
2023-03-17T07:33:11.618Z,37.01
2023-03-17T07:35:16.448Z,39.25
2023-03-17T07:37:19.725Z,38.26
2023-03-17T07:39:22.813Z,40.54
2023-03-17T07:41:25.805Z,36.37
2023-03-17T07:43:28.797Z,38.86
2023-03-17T07:45:33.474Z,41.83
2023-03-17T07:47:36.752Z,35.40
2023-03-17T07:49:41.903Z,36.47
2023-03-17T07:51:46.996Z,38.24
2023-03-17T07:53:53.356Z,35.22
2023-03-17T07:55:56.436Z,33.32
2023-03-17T07:57:59.464Z,33.05
2023-03-17T08:00:02.620Z,33.09
2023-03-17T08:02:16.850Z,34.75
2023-03-17T08:04:19.405Z,37.24
2023-03-17T08:06:22.609Z,36.80
2023-03-17T08:08:28.556Z,34.16
2023-03-17T08:10:31.944Z,36.45
2023-03-17T08:12:35.474Z,36.66
2023-03-17T08:14:38.295Z,36.19
2023-03-17T08:16:41.681Z,38.81
2023-03-17T08:18:45.109Z,35.36
2023-03-17T08:20:48.267Z,33.78
2023-03-17T08:22:51.360Z,35.89
2023-03-17T08:24:56.023Z,34.90
2023-03-17T08:27:00.838Z,34.24
2023-03-17T08:29:05.309Z,35.90
2023-03-17T08:31:13.944Z,34.70
2023-03-17T08:33:17.368Z,37.43
2023-03-17T08:35:21.149Z,33.58
2023-03-17T08:37:25.103Z,36.04
2023-03-17T08:39:28.175Z,34.34
2023-03-17T08:41:32.929Z,32.13
2023-03-17T08:43:37.636Z,32.54
2023-03-17T08:45:41.048Z,33.83
2023-03-17T08:47:43.976Z,33.46
2023-03-17T08:49:47.136Z,33.82
2023-03-17T08:51:50.165Z,31.82
2023-03-17T08:53:54.224Z,32.16
2023-03-17T08:55:58.015Z,33.52
2023-03-17T08:58:03.866Z,33.62
2023-03-17T09:00:11.303Z,32.21
2023-03-17T09:02:15.277Z,32.87
2023-03-17T09:04:18.258Z,32.74
2023-03-17T09:06:22.492Z,32.23
2023-03-17T09:08:26.889Z,32.61
2023-03-17T09:10:30.696Z,32.42
2023-03-17T09:12:34.358Z,33.09
2023-03-17T09:14:43.938Z,32.42
2023-03-17T09:16:49.077Z,32.61
2023-03-17T09:18:52.747Z,32.56
2023-03-17T09:20:55.788Z,31.43
2023-03-17T09:22:59.468Z,31.15
2023-03-17T09:25:02.443Z,31.42
2023-03-17T09:27:05.916Z,31.43
2023-03-17T09:29:08.908Z,31.70
2023-03-17T09:31:13.571Z,31.51
2023-03-17T09:33:18.058Z,29.01
2023-03-17T09:35:21.113Z,33.43
2023-03-17T09:37:24.308Z,30.68
2023-03-17T09:39:27.862Z,30.57
2023-03-17T09:41:49.216Z,30.67
2023-03-17T09:43:57.127Z,32.11
2023-03-17T09:46:09.960Z,31.64
2023-03-17T09:48:42.118Z,30.40
2023-03-17T09:50:49.207Z,30.93
2023-03-17T09:52:53.384Z,30.84
2023-03-17T09:54:57.488Z,31.92
2023-03-17T09:57:07.084Z,32.04
2023-03-17T09:59:29.435Z,33.48
2023-03-17T10:01:32.535Z,32.49
2023-03-17T10:03:37.790Z,31.89
2023-03-17T10:05:40.932Z,30.45
2023-03-17T10:07:52.166Z,31.29
2023-03-17T10:10:01.797Z,30.45
2023-03-17T10:12:10.233Z,30.79
2023-03-17T10:14:30.010Z,30.14
2023-03-17T10:16:43.153Z,31.32
2023-03-17T10:18:54.686Z,31.35
2023-03-17T10:21:02.051Z,30.91
2023-03-17T10:23:07.965Z,30.72
2023-03-17T10:25:16.048Z,29.02
2023-03-17T10:27:19.855Z,30.76
2023-03-17T10:29:26.893Z,29.84
2023-03-17T10:31:35.816Z,29.59
2023-03-17T10:33:38.795Z,28.92
2023-03-17T10:35:45.221Z,28.13
2023-03-17T10:37:48.706Z,29.64
2023-03-17T10:39:52.983Z,28.15
2023-03-17T10:41:58.391Z,29.21
2023-03-17T10:44:01.350Z,29.51
2023-03-17T10:46:05.976Z,30.16
2023-03-17T10:48:11.000Z,28.12
2023-03-17T10:50:23.210Z,28.34
2023-03-17T10:52:30.636Z,30.68
2023-03-17T10:54:36.364Z,30.04
2023-03-17T10:56:42.756Z,28.92
2023-03-17T10:58:49.221Z,30.16
2023-03-17T11:00:57.189Z,29.54
2023-03-17T11:03:03.640Z,31.83
2023-03-17T11:05:17.676Z,30.38
2023-03-17T11:07:27.476Z,29.62
2023-03-17T11:09:36.148Z,31.43
2023-03-17T11:11:44.951Z,27.50
2023-03-17T11:13:48.428Z,28.85
2023-03-17T11:15:56.785Z,29.31
2023-03-17T11:18:01.549Z,28.61
2023-03-17T11:20:19.998Z,29.50
2023-03-17T11:22:31.098Z,29.17
2023-03-17T11:24:46.408Z,28.46
2023-03-17T11:26:59.621Z,28.37
2023-03-17T11:29:20.230Z,28.32
2023-03-17T11:31:31.479Z,27.87
2023-03-17T11:33:41.561Z,28.36
2023-03-17T11:35:56.475Z,28.35
2023-03-17T11:38:24.809Z,30.66
2023-03-17T11:40:35.421Z,30.87
2023-03-17T11:42:48.090Z,28.56
2023-03-17T11:45:22.937Z,28.59
2023-03-17T11:47:43.242Z,28.03
2023-03-17T11:49:52.890Z,28.93
2023-03-17T11:52:03.707Z,29.38
2023-03-17T11:54:18.609Z,28.61
2023-03-17T11:56:29.176Z,29.82
2023-03-17T11:58:37.356Z,29.44
2023-03-17T12:00:46.223Z,30.35
2023-03-17T12:02:54.915Z,29.42
2023-03-17T12:05:02.776Z,27.81
2023-03-17T12:07:14.084Z,28.45
2023-03-17T12:09:26.180Z,27.56
2023-03-17T12:11:35.474Z,28.39
2023-03-17T12:13:43.499Z,28.16
2023-03-17T12:15:51.386Z,27.73
2023-03-17T12:17:59.087Z,27.36
2023-03-17T12:20:16.823Z,26.54
2023-03-17T12:22:28.662Z,28.78
2023-03-17T12:24:35.547Z,28.30
2023-03-17T12:26:49.292Z,27.40
2023-03-17T12:28:57.957Z,29.30
2023-03-17T12:31:06.239Z,27.62
2023-03-17T12:33:18.431Z,28.24
2023-03-17T12:35:28.305Z,26.29
2023-03-17T12:37:31.572Z,26.77
2023-03-17T12:39:37.462Z,27.36
2023-03-17T12:41:48.184Z,26.59
2023-03-17T12:44:03.332Z,27.08
2023-03-17T12:46:35.668Z,27.10
2023-03-17T12:49:20.276Z,28.42
2023-03-17T12:51:50.372Z,29.24
2023-03-17T12:53:54.160Z,27.85
2023-03-17T12:56:02.492Z,28.81
2023-03-17T12:58:23.720Z,28.45
2023-03-17T13:00:30.308Z,29.58
2023-03-17T13:02:35.700Z,30.28
2023-03-17T13:04:39.570Z,27.44
2023-03-17T13:06:45.591Z,28.58
2023-03-17T13:08:50.631Z,29.09
2023-03-17T13:11:18.949Z,27.10
2023-03-17T13:13:41.261Z,26.01
2023-03-17T13:15:54.419Z,28.45
2023-03-17T13:18:27.514Z,26.37
2023-03-17T13:20:39.403Z,28.18
2023-03-17T13:23:03.545Z,26.65
2023-03-17T13:25:30.733Z,26.20
2023-03-17T13:27:45.442Z,27.26
2023-03-17T13:29:49.832Z,28.20
2023-03-17T13:31:53.115Z,27.72
2023-03-17T13:33:57.941Z,28.99
2023-03-17T13:36:30.856Z,28.05
2023-03-17T13:39:18.264Z,26.69
2023-03-17T13:41:38.017Z,29.10
2023-03-17T13:44:02.433Z,27.65
2023-03-17T13:46:26.938Z,29.97
2023-03-17T13:48:34.657Z,28.12
2023-03-17T13:50:40.474Z,28.00
2023-03-17T13:52:48.859Z,26.04
2023-03-17T13:55:02.002Z,26.47
2023-03-17T13:57:26.814Z,28.16
2023-03-17T13:59:48.560Z,27.75
2023-03-17T14:01:58.015Z,26.53
2023-03-17T14:04:08.820Z,27.75
2023-03-17T14:06:14.616Z,27.00
2023-03-17T14:08:26.003Z,27.64
2023-03-17T14:10:30.662Z,27.80
2023-03-17T14:12:40.800Z,28.03
2023-03-17T14:14:50.253Z,28.29
2023-03-17T14:16:59.629Z,28.93
2023-03-17T14:19:16.506Z,27.94
2023-03-17T14:21:22.694Z,28.50
2023-03-17T14:23:26.114Z,27.52
2023-03-17T14:25:34.411Z,27.14
2023-03-17T14:27:39.702Z,27.10
2023-03-17T14:29:43.661Z,27.72
2023-03-17T14:31:50.150Z,28.91
2023-03-17T14:33:56.829Z,28.56
2023-03-17T14:36:01.675Z,30.17
2023-03-17T14:38:19.305Z,28.64
2023-03-17T14:40:25.004Z,29.75
2023-03-17T14:42:29.883Z,30.52
2023-03-17T14:44:40.200Z,32.06
2023-03-17T14:46:43.316Z,29.13
2023-03-17T14:48:49.586Z,29.14
2023-03-17T14:50:55.712Z,28.81
2023-03-17T14:52:59.840Z,29.27
2023-03-17T14:55:02.875Z,28.04
2023-03-17T14:57:08.434Z,29.65
2023-03-17T14:59:19.728Z,30.25
2023-03-17T15:01:34.209Z,30.96
2023-03-17T15:03:40.445Z,29.50
2023-03-17T15:05:46.622Z,28.45
2023-03-17T15:07:51.324Z,30.10
2023-03-17T15:10:00.167Z,30.01
2023-03-17T15:12:06.256Z,32.37
2023-03-17T15:14:19.342Z,33.35
2023-03-17T15:16:27.820Z,31.16
2023-03-17T15:18:31.125Z,29.90
2023-03-17T15:20:35.644Z,31.64
2023-03-17T15:22:43.195Z,31.33
2023-03-17T15:24:58.658Z,30.46
2023-03-17T15:27:03.588Z,32.29
2023-03-17T15:29:07.857Z,30.27
2023-03-17T15:31:14.172Z,30.60
2023-03-17T15:33:22.197Z,32.11
2023-03-17T15:35:25.466Z,32.59
2023-03-17T15:37:30.622Z,31.54
2023-03-17T15:39:34.236Z,30.55
2023-03-17T15:41:38.700Z,31.29
2023-03-17T15:43:41.687Z,32.25
2023-03-17T15:45:46.442Z,32.46
2023-03-17T15:47:49.344Z,31.88
2023-03-17T15:49:52.779Z,32.75
2023-03-17T15:51:55.637Z,34.17
2023-03-17T15:53:58.477Z,35.08
2023-03-17T15:56:01.415Z,34.05
2023-03-17T15:58:05.905Z,33.50
2023-03-17T16:00:10.883Z,36.22
2023-03-17T16:02:28.162Z,34.79
2023-03-17T16:04:31.544Z,34.28
2023-03-17T16:06:35.371Z,34.34
2023-03-17T16:08:39.041Z,35.10
2023-03-17T16:10:42.230Z,36.15
2023-03-17T16:12:45.562Z,35.97
2023-03-17T16:14:50.198Z,35.25
2023-03-17T16:16:53.306Z,35.53
2023-03-17T16:18:56.400Z,36.24
2023-03-17T16:20:59.359Z,35.79
2023-03-17T16:23:08.414Z,34.92
2023-03-17T16:25:21.750Z,35.30
2023-03-17T16:27:24.906Z,36.67
2023-03-17T16:29:27.845Z,35.17
2023-03-17T16:31:32.360Z,35.93
2023-03-17T16:33:40.194Z,35.76
2023-03-17T16:35:43.297Z,34.66
2023-03-17T16:37:46.563Z,34.92
2023-03-17T16:39:52.498Z,34.86
2023-03-17T16:41:55.703Z,34.49
2023-03-17T16:44:00.692Z,34.82
2023-03-17T16:46:05.508Z,35.29
2023-03-17T16:48:13.895Z,35.00
2023-03-17T16:50:18.770Z,36.58
2023-03-17T16:52:21.707Z,36.59
2023-03-17T16:54:24.683Z,35.50
2023-03-17T16:56:28.108Z,39.62
2023-03-17T16:58:34.224Z,39.01
2023-03-17T17:00:37.177Z,40.83
2023-03-17T17:02:40.303Z,45.18
2023-03-17T17:04:44.733Z,44.10
2023-03-17T17:06:47.716Z,47.31
2023-03-17T17:08:51.746Z,44.85
2023-03-17T17:10:54.686Z,45.94
2023-03-17T17:12:57.656Z,48.15
2023-03-17T17:15:00.636Z,49.34
2023-03-17T17:17:04.394Z,51.91
2023-03-17T17:19:15.720Z,51.30
2023-03-17T17:21:20.788Z,53.51
2023-03-17T17:23:25.226Z,54.54
2023-03-17T17:25:29.545Z,49.43
2023-03-17T17:27:32.669Z,55.51
2023-03-17T17:29:35.937Z,54.95
2023-03-17T17:31:40.353Z,55.87
2023-03-17T17:33:43.657Z,58.15
2023-03-17T17:35:47.678Z,57.63
2023-03-17T17:37:52.659Z,59.30
2023-03-17T17:39:55.827Z,57.60
2023-03-17T17:41:58.838Z,59.13
2023-03-17T17:44:01.717Z,59.12
2023-03-17T17:46:04.740Z,61.82
2023-03-17T17:48:07.645Z,61.07
2023-03-17T17:50:17.294Z,60.86
2023-03-17T17:52:20.107Z,60.08
2023-03-17T17:54:24.615Z,59.94
2023-03-17T17:56:27.428Z,61.54
2023-03-17T17:58:30.732Z,60.37
2023-03-17T18:00:33.822Z,61.99
2023-03-17T18:02:36.916Z,60.01
2023-03-17T18:04:39.860Z,61.05
2023-03-17T18:06:42.823Z,61.20
2023-03-17T18:08:45.942Z,62.59
2023-03-17T18:10:51.987Z,62.41
2023-03-17T18:12:55.941Z,61.74
2023-03-17T18:14:58.920Z,59.59
2023-03-17T18:17:01.781Z,65.17
2023-03-17T18:19:06.510Z,64.84
2023-03-17T18:21:10.156Z,65.40
2023-03-17T18:23:13.392Z,66.69
2023-03-17T18:25:16.781Z,66.87
2023-03-17T18:27:21.182Z,67.65
2023-03-17T18:29:23.950Z,68.26
2023-03-17T18:31:31.873Z,68.59
2023-03-17T18:33:35.095Z,66.96
2023-03-17T18:35:38.299Z,56.65
2023-03-17T18:37:41.527Z,64.37
2023-03-17T18:39:48.430Z,62.38
2023-03-17T18:41:56.406Z,60.38
2023-03-17T18:44:01.303Z,52.96
2023-03-17T18:46:04.735Z,54.52
2023-03-17T18:48:07.676Z,57.70
2023-03-17T18:50:12.602Z,57.85
2023-03-17T18:52:15.636Z,60.01
2023-03-17T18:54:18.444Z,56.26
2023-03-17T18:56:23.658Z,53.73
2023-03-17T18:58:26.654Z,55.72
2023-03-17T19:00:31.530Z,55.44
2023-03-17T19:02:34.674Z,53.54
2023-03-17T19:04:39.784Z,53.58
2023-03-17T19:06:43.061Z,53.82
2023-03-17T19:08:46.994Z,51.58
2023-03-17T19:10:50.386Z,51.11
2023-03-17T19:12:53.653Z,51.57
2023-03-17T19:14:56.733Z,52.79
2023-03-17T19:17:01.412Z,49.67
2023-03-17T19:19:04.456Z,49.57
2023-03-17T19:21:08.782Z,50.45
2023-03-17T19:23:12.748Z,52.39
2023-03-17T19:25:16.977Z,51.70
2023-03-17T19:27:20.349Z,51.79
2023-03-17T19:29:23.440Z,51.45
2023-03-17T19:31:27.429Z,51.38
2023-03-17T19:33:32.976Z,52.52
2023-03-17T19:35:35.883Z,53.07
2023-03-17T19:37:38.839Z,52.71
2023-03-17T19:39:44.640Z,54.04
2023-03-17T19:41:50.373Z,52.70
2023-03-17T19:43:53.170Z,54.43
2023-03-17T19:45:56.269Z,52.99
2023-03-17T19:47:59.112Z,54.09
2023-03-17T19:50:03.535Z,51.08
2023-03-17T19:52:06.867Z,52.28
2023-03-17T19:54:11.485Z,51.01
2023-03-17T19:56:14.815Z,52.00
2023-03-17T19:58:17.733Z,50.95
2023-03-17T20:00:22.845Z,53.39
2023-03-17T20:02:25.903Z,53.29
2023-03-17T20:04:29.103Z,52.37
2023-03-17T20:06:34.923Z,53.16
2023-03-17T20:08:38.031Z,52.40
2023-03-17T20:10:40.954Z,52.67
2023-03-17T20:12:46.083Z,53.68
2023-03-17T20:14:49.154Z,52.65
2023-03-17T20:16:52.274Z,53.15
2023-03-17T20:18:55.277Z,52.90
2023-03-17T20:21:00.436Z,52.79
2023-03-17T20:23:04.924Z,52.10
2023-03-17T20:25:10.654Z,52.05
2023-03-17T20:27:16.634Z,50.37
2023-03-17T20:29:20.226Z,53.61
2023-03-17T20:31:23.820Z,52.42
2023-03-17T20:33:27.063Z,51.55
2023-03-17T20:35:31.168Z,51.56
2023-03-17T20:37:34.275Z,51.64
2023-03-17T20:39:38.714Z,50.36
2023-03-17T20:41:41.920Z,52.40
2023-03-17T20:43:45.507Z,52.70
2023-03-17T20:45:51.375Z,53.71
2023-03-17T20:47:54.855Z,54.47
2023-03-17T20:49:59.173Z,53.13
2023-03-17T20:52:02.333Z,54.51
2023-03-17T20:54:05.599Z,53.69
2023-03-17T20:56:12.815Z,52.76
2023-03-17T20:58:15.845Z,53.32
2023-03-17T21:00:21.578Z,53.94
2023-03-17T21:02:24.668Z,54.54
2023-03-17T21:04:27.935Z,54.33
2023-03-17T21:06:31.735Z,55.26
2023-03-17T21:08:34.983Z,55.96
2023-03-17T21:10:37.854Z,60.28
2023-03-17T21:12:42.397Z,62.68
2023-03-17T21:14:45.622Z,63.84
2023-03-17T21:16:48.765Z,66.41
2023-03-17T21:18:51.878Z,68.31
2023-03-17T21:20:54.844Z,67.33
2023-03-17T21:22:58.164Z,67.48
2023-03-17T21:25:01.686Z,68.80
2023-03-17T21:27:07.154Z,69.58
2023-03-17T21:29:12.074Z,69.95
2023-03-17T21:31:17.453Z,71.50
2023-03-17T21:33:20.026Z,71.77
2023-03-17T21:35:25.162Z,72.68
2023-03-17T21:37:28.363Z,72.18
2023-03-17T21:39:32.972Z,71.32
2023-03-17T21:41:38.188Z,72.13
2023-03-17T21:43:41.049Z,72.23
2023-03-17T21:45:45.587Z,71.94
2023-03-17T21:47:48.468Z,75.07
2023-03-17T21:49:51.434Z,73.95
2023-03-17T21:51:55.032Z,75.34
2023-03-17T21:53:58.342Z,74.78
2023-03-17T21:56:01.461Z,76.04
2023-03-17T21:58:04.393Z,74.94
2023-03-17T22:00:09.933Z,75.08
2023-03-17T22:02:17.965Z,75.80
2023-03-17T22:04:20.794Z,76.46
2023-03-17T22:06:26.483Z,75.62
2023-03-17T22:08:29.142Z,75.87
2023-03-17T22:10:32.422Z,72.43
2023-03-17T22:12:36.477Z,70.52
2023-03-17T22:14:39.622Z,71.69
2023-03-17T22:16:42.551Z,71.51
2023-03-17T22:18:47.780Z,72.98
2023-03-17T22:20:54.183Z,73.22
2023-03-17T22:22:57.126Z,70.13
2023-03-17T22:25:00.674Z,72.09
2023-03-17T22:27:03.885Z,71.37
2023-03-17T22:29:06.873Z,73.25
2023-03-17T22:31:13.988Z,71.25
2023-03-17T22:33:17.879Z,70.60
2023-03-17T22:35:23.709Z,71.60
2023-03-17T22:37:26.968Z,69.02
2023-03-17T22:39:29.894Z,71.33
2023-03-17T22:41:32.789Z,69.17
2023-03-17T22:43:36.196Z,71.43
2023-03-17T22:45:39.484Z,70.31
2023-03-17T22:47:42.938Z,69.30
2023-03-17T22:49:45.828Z,70.42
2023-03-17T22:51:50.468Z,69.84
2023-03-17T22:53:55.147Z,71.66
2023-03-17T22:55:58.379Z,72.15
2023-03-17T22:58:01.239Z,71.55
2023-03-17T23:00:09.340Z,72.86
2023-03-17T23:02:12.269Z,68.76
2023-03-17T23:04:15.246Z,69.97
2023-03-17T23:06:18.600Z,66.06
2023-03-17T23:08:23.542Z,65.98
2023-03-17T23:10:27.114Z,66.09
2023-03-17T23:12:30.061Z,63.34
2023-03-17T23:14:32.952Z,64.08
2023-03-17T23:16:35.893Z,62.70
2023-03-17T23:18:38.948Z,63.21
2023-03-17T23:20:42.860Z,66.88
2023-03-17T23:22:45.693Z,63.96
2023-03-17T23:24:50.338Z,64.19
2023-03-17T23:26:53.211Z,62.78
2023-03-17T23:28:56.419Z,63.07
2023-03-17T23:30:59.660Z,62.37
2023-03-17T23:33:03.304Z,61.13
2023-03-17T23:35:07.424Z,60.66
2023-03-17T23:37:10.616Z,60.34
2023-03-17T23:39:13.716Z,59.41
2023-03-17T23:41:18.695Z,61.15
2023-03-17T23:43:21.705Z,61.85
2023-03-17T23:45:25.238Z,61.37
2023-03-17T23:47:28.392Z,61.92
2023-03-17T23:49:31.453Z,60.36
2023-03-17T23:51:35.874Z,61.43
2023-03-17T23:53:42.702Z,61.46
2023-03-17T23:55:46.055Z,62.04
2023-03-17T23:58:02.213Z,60.55
